sensor_id;sensor_type;location;lat;lon;timestamp;P1;durP1;ratioP1;P2;durP2;ratioP2
35324;SDS011;35135;47.510;19.036;2023-06-24T00:01:16;4.32;;;3.90;;
35324;SDS011;35135;47.510;19.036;2023-06-24T00:03:42;5.40;;;4.57;;
35324;SDS011;35135;47.510;19.036;2023-06-24T00:06:11;4.70;;;4.30;;
35324;SDS011;35135;47.510;19.036;2023-06-24T00:08:43;4.78;;;3.65;;
35324;SDS011;35135;47.510;19.036;2023-06-24T00:11:10;4.20;;;3.70;;
35324;SDS011;35135;47.510;19.036;2023-06-24T00:13:36;4.55;;;3.83;;
35324;SDS011;35135;47.510;19.036;2023-06-24T00:16:02;5.07;;;4.57;;
35324;SDS011;35135;47.510;19.036;2023-06-24T00:18:28;4.80;;;4.40;;
35324;SDS011;35135;47.510;19.036;2023-06-24T00:20:54;4.47;;;4.03;;
35324;SDS011;35135;47.510;19.036;2023-06-24T00:23:22;4.88;;;4.35;;
35324;SDS011;35135;47.510;19.036;2023-06-24T00:25:51;4.30;;;3.90;;
35324;SDS011;35135;47.510;19.036;2023-06-24T00:28:17;4.50;;;3.78;;
35324;SDS011;35135;47.510;19.036;2023-06-24T00:30:43;6.05;;;4.55;;
35324;SDS011;35135;47.510;19.036;2023-06-24T00:33:09;5.22;;;4.35;;
35324;SDS011;35135;47.510;19.036;2023-06-24T00:35:36;4.50;;;3.80;;
35324;SDS011;35135;47.510;19.036;2023-06-24T00:38:02;5.45;;;4.30;;
35324;SDS011;35135;47.510;19.036;2023-06-24T00:40:28;4.53;;;3.90;;
35324;SDS011;35135;47.510;19.036;2023-06-24T00:42:54;5.15;;;4.20;;
35324;SDS011;35135;47.510;19.036;2023-06-24T00:45:21;4.47;;;4.00;;
35324;SDS011;35135;47.510;19.036;2023-06-24T00:47:47;4.55;;;4.15;;
35324;SDS011;35135;47.510;19.036;2023-06-24T00:50:14;4.80;;;4.05;;
35324;SDS011;35135;47.510;19.036;2023-06-24T00:52:40;4.17;;;3.77;;
35324;SDS011;35135;47.510;19.036;2023-06-24T00:55:08;4.03;;;3.70;;
35324;SDS011;35135;47.510;19.036;2023-06-24T00:57:44;4.60;;;4.07;;
35324;SDS011;35135;47.510;19.036;2023-06-24T01:00:10;4.28;;;3.88;;
35324;SDS011;35135;47.510;19.036;2023-06-24T01:02:42;4.50;;;4.10;;
35324;SDS011;35135;47.510;19.036;2023-06-24T01:05:09;4.30;;;3.90;;
35324;SDS011;35135;47.510;19.036;2023-06-24T01:07:36;6.45;;;3.90;;
35324;SDS011;35135;47.510;19.036;2023-06-24T01:10:04;4.45;;;4.00;;
35324;SDS011;35135;47.510;19.036;2023-06-24T01:12:36;4.97;;;4.20;;
35324;SDS011;35135;47.510;19.036;2023-06-24T01:15:04;5.38;;;3.67;;
35324;SDS011;35135;47.510;19.036;2023-06-24T01:20:41;4.57;;;4.18;;
35324;SDS011;35135;47.510;19.036;2023-06-24T01:23:47;4.00;;;3.60;;
35324;SDS011;35135;47.510;19.036;2023-06-24T01:26:51;3.92;;;3.60;;
35324;SDS011;35135;47.510;19.036;2023-06-24T01:34:57;4.60;;;3.90;;
35324;SDS011;35135;47.510;19.036;2023-06-24T01:37:28;4.10;;;3.70;;
35324;SDS011;35135;47.510;19.036;2023-06-24T01:40:37;4.38;;;3.97;;
35324;SDS011;35135;47.510;19.036;2023-06-24T01:43:08;4.75;;;3.72;;
35324;SDS011;35135;47.510;19.036;2023-06-24T01:45:52;3.67;;;3.28;;
35324;SDS011;35135;47.510;19.036;2023-06-24T01:48:30;4.50;;;3.60;;
35324;SDS011;35135;47.510;19.036;2023-06-24T01:51:09;4.18;;;3.67;;
35324;SDS011;35135;47.510;19.036;2023-06-24T01:53:38;4.28;;;3.88;;
35324;SDS011;35135;47.510;19.036;2023-06-24T01:56:08;4.72;;;3.55;;
35324;SDS011;35135;47.510;19.036;2023-06-24T01:58:37;3.72;;;3.03;;
35324;SDS011;35135;47.510;19.036;2023-06-24T02:01:05;5.65;;;3.58;;
35324;SDS011;35135;47.510;19.036;2023-06-24T02:03:32;4.40;;;3.42;;
35324;SDS011;35135;47.510;19.036;2023-06-24T02:05:59;3.42;;;3.13;;
35324;SDS011;35135;47.510;19.036;2023-06-24T02:08:28;4.50;;;3.03;;
35324;SDS011;35135;47.510;19.036;2023-06-24T02:10:55;5.40;;;3.50;;
35324;SDS011;35135;47.510;19.036;2023-06-24T02:13:21;3.38;;;2.83;;
35324;SDS011;35135;47.510;19.036;2023-06-24T02:15:48;4.50;;;3.22;;
35324;SDS011;35135;47.510;19.036;2023-06-24T02:18:15;3.72;;;3.10;;
35324;SDS011;35135;47.510;19.036;2023-06-24T02:20:42;3.42;;;3.13;;
35324;SDS011;35135;47.510;19.036;2023-06-24T02:23:09;3.53;;;3.20;;
35324;SDS011;35135;47.510;19.036;2023-06-24T02:25:37;4.60;;;3.20;;
35324;SDS011;35135;47.510;19.036;2023-06-24T02:28:05;4.82;;;3.20;;
35324;SDS011;35135;47.510;19.036;2023-06-24T02:30:32;3.97;;;3.20;;
35324;SDS011;35135;47.510;19.036;2023-06-24T02:33:00;5.55;;;3.30;;
35324;SDS011;35135;47.510;19.036;2023-06-24T02:35:26;6.97;;;3.22;;
35324;SDS011;35135;47.510;19.036;2023-06-24T02:37:52;2.95;;;2.67;;
35324;SDS011;35135;47.510;19.036;2023-06-24T02:40:18;4.57;;;3.17;;
35324;SDS011;35135;47.510;19.036;2023-06-24T02:42:44;3.80;;;2.70;;
35324;SDS011;35135;47.510;19.036;2023-06-24T02:45:10;3.15;;;2.85;;
35324;SDS011;35135;47.510;19.036;2023-06-24T02:47:36;3.17;;;2.30;;
35324;SDS011;35135;47.510;19.036;2023-06-24T02:50:04;4.10;;;2.60;;
35324;SDS011;35135;47.510;19.036;2023-06-24T02:52:32;2.88;;;2.65;;
35324;SDS011;35135;47.510;19.036;2023-06-24T02:54:58;4.05;;;2.75;;
35324;SDS011;35135;47.510;19.036;2023-06-24T02:57:24;3.42;;;2.55;;
35324;SDS011;35135;47.510;19.036;2023-06-24T02:59:51;4.68;;;2.63;;
35324;SDS011;35135;47.510;19.036;2023-06-24T03:02:17;3.85;;;2.30;;
35324;SDS011;35135;47.510;19.036;2023-06-24T03:04:43;2.72;;;2.40;;
35324;SDS011;35135;47.510;19.036;2023-06-24T03:07:10;4.22;;;2.38;;
35324;SDS011;35135;47.510;19.036;2023-06-24T03:09:36;3.65;;;2.10;;
35324;SDS011;35135;47.510;19.036;2023-06-24T03:12:02;2.88;;;2.35;;
35324;SDS011;35135;47.510;19.036;2023-06-24T03:14:28;2.70;;;2.33;;
35324;SDS011;35135;47.510;19.036;2023-06-24T03:16:54;3.15;;;2.35;;
35324;SDS011;35135;47.510;19.036;2023-06-24T03:19:19;5.72;;;2.22;;
35324;SDS011;35135;47.510;19.036;2023-06-24T03:21:45;4.13;;;2.45;;
35324;SDS011;35135;47.510;19.036;2023-06-24T03:24:11;3.28;;;2.10;;
35324;SDS011;35135;47.510;19.036;2023-06-24T03:26:39;3.28;;;2.03;;
35324;SDS011;35135;47.510;19.036;2023-06-24T03:29:05;3.13;;;1.98;;
35324;SDS011;35135;47.510;19.036;2023-06-24T03:31:34;5.97;;;2.33;;
35324;SDS011;35135;47.510;19.036;2023-06-24T03:34:00;2.80;;;2.20;;
35324;SDS011;35135;47.510;19.036;2023-06-24T03:36:25;4.18;;;2.13;;
35324;SDS011;35135;47.510;19.036;2023-06-24T03:38:51;3.28;;;1.98;;
35324;SDS011;35135;47.510;19.036;2023-06-24T03:41:17;3.33;;;2.00;;
35324;SDS011;35135;47.510;19.036;2023-06-24T03:43:43;5.40;;;1.83;;
35324;SDS011;35135;47.510;19.036;2023-06-24T03:46:10;2.45;;;1.60;;
35324;SDS011;35135;47.510;19.036;2023-06-24T03:48:38;4.55;;;2.10;;
35324;SDS011;35135;47.510;19.036;2023-06-24T03:51:04;2.72;;;1.58;;
35324;SDS011;35135;47.510;19.036;2023-06-24T03:53:30;3.60;;;1.77;;
35324;SDS011;35135;47.510;19.036;2023-06-24T03:55:55;2.58;;;1.80;;
35324;SDS011;35135;47.510;19.036;2023-06-24T03:58:21;1.90;;;1.30;;
35324;SDS011;35135;47.510;19.036;2023-06-24T04:00:47;2.20;;;1.50;;
35324;SDS011;35135;47.510;19.036;2023-06-24T04:03:14;2.22;;;1.80;;
35324;SDS011;35135;47.510;19.036;2023-06-24T04:05:43;3.25;;;1.73;;
35324;SDS011;35135;47.510;19.036;2023-06-24T04:08:09;2.78;;;1.40;;
35324;SDS011;35135;47.510;19.036;2023-06-24T04:10:35;3.80;;;1.52;;
35324;SDS011;35135;47.510;19.036;2023-06-24T04:13:01;1.58;;;1.48;;
35324;SDS011;35135;47.510;19.036;2023-06-24T04:15:26;2.65;;;1.80;;
35324;SDS011;35135;47.510;19.036;2023-06-24T04:17:52;1.98;;;1.25;;
35324;SDS011;35135;47.510;19.036;2023-06-24T04:20:18;2.05;;;1.25;;
35324;SDS011;35135;47.510;19.036;2023-06-24T04:22:43;2.72;;;1.25;;
35324;SDS011;35135;47.510;19.036;2023-06-24T04:25:09;2.22;;;1.20;;
35324;SDS011;35135;47.510;19.036;2023-06-24T04:27:35;1.58;;;1.20;;
35324;SDS011;35135;47.510;19.036;2023-06-24T04:30:01;1.38;;;1.15;;
35324;SDS011;35135;47.510;19.036;2023-06-24T04:32:28;2.42;;;1.25;;
35324;SDS011;35135;47.510;19.036;2023-06-24T04:34:54;1.52;;;1.27;;
35324;SDS011;35135;47.510;19.036;2023-06-24T04:37:19;3.53;;;1.30;;
35324;SDS011;35135;47.510;19.036;2023-06-24T04:39:45;1.80;;;1.65;;
35324;SDS011;35135;47.510;19.036;2023-06-24T04:42:13;1.30;;;0.95;;
35324;SDS011;35135;47.510;19.036;2023-06-24T04:44:39;2.50;;;1.10;;
35324;SDS011;35135;47.510;19.036;2023-06-24T04:47:05;2.78;;;1.13;;
35324;SDS011;35135;47.510;19.036;2023-06-24T04:49:31;2.50;;;1.20;;
35324;SDS011;35135;47.510;19.036;2023-06-24T04:51:59;1.20;;;0.88;;
35324;SDS011;35135;47.510;19.036;2023-06-24T04:54:25;2.65;;;0.85;;
35324;SDS011;35135;47.510;19.036;2023-06-24T04:56:52;1.10;;;0.90;;
35324;SDS011;35135;47.510;19.036;2023-06-24T04:59:20;1.55;;;0.80;;
35324;SDS011;35135;47.510;19.036;2023-06-24T05:01:48;1.90;;;0.65;;
35324;SDS011;35135;47.510;19.036;2023-06-24T05:04:14;1.17;;;0.70;;
35324;SDS011;35135;47.510;19.036;2023-06-24T05:06:40;2.38;;;0.75;;
35324;SDS011;35135;47.510;19.036;2023-06-24T05:09:05;1.00;;;0.80;;
35324;SDS011;35135;47.510;19.036;2023-06-24T05:11:31;0.75;;;0.60;;
35324;SDS011;35135;47.510;19.036;2023-06-24T05:13:57;2.80;;;0.80;;
35324;SDS011;35135;47.510;19.036;2023-06-24T05:16:23;1.05;;;0.77;;
35324;SDS011;35135;47.510;19.036;2023-06-24T05:18:49;0.70;;;0.70;;
35324;SDS011;35135;47.510;19.036;2023-06-24T05:21:15;2.95;;;0.80;;
35324;SDS011;35135;47.510;19.036;2023-06-24T05:23:41;1.25;;;0.60;;
35324;SDS011;35135;47.510;19.036;2023-06-24T05:26:07;1.63;;;0.80;;
35324;SDS011;35135;47.510;19.036;2023-06-24T05:28:32;2.58;;;0.65;;
35324;SDS011;35135;47.510;19.036;2023-06-24T05:30:58;1.48;;;0.68;;
35324;SDS011;35135;47.510;19.036;2023-06-24T05:33:24;2.70;;;0.70;;
35324;SDS011;35135;47.510;19.036;2023-06-24T05:35:49;1.13;;;0.50;;
35324;SDS011;35135;47.510;19.036;2023-06-24T05:38:15;2.67;;;0.70;;
35324;SDS011;35135;47.510;19.036;2023-06-24T05:40:41;1.30;;;0.68;;
35324;SDS011;35135;47.510;19.036;2023-06-24T05:43:07;1.13;;;0.60;;
35324;SDS011;35135;47.510;19.036;2023-06-24T05:45:32;1.88;;;0.50;;
35324;SDS011;35135;47.510;19.036;2023-06-24T05:47:58;1.77;;;0.50;;
35324;SDS011;35135;47.510;19.036;2023-06-24T05:50:24;1.00;;;0.80;;
35324;SDS011;35135;47.510;19.036;2023-06-24T05:52:51;2.13;;;0.70;;
35324;SDS011;35135;47.510;19.036;2023-06-24T05:55:16;0.88;;;0.55;;
35324;SDS011;35135;47.510;19.036;2023-06-24T05:57:42;0.55;;;0.47;;
35324;SDS011;35135;47.510;19.036;2023-06-24T06:00:08;2.15;;;0.70;;
35324;SDS011;35135;47.510;19.036;2023-06-24T06:02:34;3.47;;;0.77;;
35324;SDS011;35135;47.510;19.036;2023-06-24T06:04:59;0.55;;;0.50;;
35324;SDS011;35135;47.510;19.036;2023-06-24T06:07:26;1.08;;;0.60;;
35324;SDS011;35135;47.510;19.036;2023-06-24T06:09:52;0.73;;;0.50;;
35324;SDS011;35135;47.510;19.036;2023-06-24T06:12:18;1.42;;;0.70;;
35324;SDS011;35135;47.510;19.036;2023-06-24T06:14:44;3.15;;;0.68;;
35324;SDS011;35135;47.510;19.036;2023-06-24T06:17:10;0.60;;;0.60;;
35324;SDS011;35135;47.510;19.036;2023-06-24T06:19:36;0.65;;;0.47;;
35324;SDS011;35135;47.510;19.036;2023-06-24T06:22:04;2.58;;;0.52;;
35324;SDS011;35135;47.510;19.036;2023-06-24T06:24:30;2.75;;;0.77;;
35324;SDS011;35135;47.510;19.036;2023-06-24T06:26:57;1.52;;;0.70;;
35324;SDS011;35135;47.510;19.036;2023-06-24T06:29:24;1.95;;;0.70;;
35324;SDS011;35135;47.510;19.036;2023-06-24T06:31:49;1.52;;;0.60;;
35324;SDS011;35135;47.510;19.036;2023-06-24T06:34:15;1.55;;;0.70;;
35324;SDS011;35135;47.510;19.036;2023-06-24T06:36:41;1.08;;;0.65;;
35324;SDS011;35135;47.510;19.036;2023-06-24T06:39:07;2.92;;;0.85;;
35324;SDS011;35135;47.510;19.036;2023-06-24T06:41:33;1.30;;;0.70;;
35324;SDS011;35135;47.510;19.036;2023-06-24T06:43:59;1.92;;;0.77;;
35324;SDS011;35135;47.510;19.036;2023-06-24T06:46:24;3.60;;;0.80;;
35324;SDS011;35135;47.510;19.036;2023-06-24T06:48:50;1.85;;;0.88;;
35324;SDS011;35135;47.510;19.036;2023-06-24T06:51:16;1.92;;;0.80;;
35324;SDS011;35135;47.510;19.036;2023-06-24T06:53:43;3.42;;;1.05;;
35324;SDS011;35135;47.510;19.036;2023-06-24T06:56:16;2.25;;;0.90;;
35324;SDS011;35135;47.510;19.036;2023-06-24T06:58:47;2.33;;;0.82;;
35324;SDS011;35135;47.510;19.036;2023-06-24T07:01:13;2.22;;;0.70;;
35324;SDS011;35135;47.510;19.036;2023-06-24T07:03:39;2.88;;;0.70;;
35324;SDS011;35135;47.510;19.036;2023-06-24T07:06:05;1.33;;;0.50;;
35324;SDS011;35135;47.510;19.036;2023-06-24T07:08:30;2.40;;;0.80;;
35324;SDS011;35135;47.510;19.036;2023-06-24T07:10:56;2.53;;;0.60;;
35324;SDS011;35135;47.510;19.036;2023-06-24T07:13:21;1.52;;;0.63;;
35324;SDS011;35135;47.510;19.036;2023-06-24T07:15:47;2.80;;;0.98;;
35324;SDS011;35135;47.510;19.036;2023-06-24T07:18:13;2.63;;;1.00;;
35324;SDS011;35135;47.510;19.036;2023-06-24T07:20:38;3.38;;;0.80;;
35324;SDS011;35135;47.510;19.036;2023-06-24T07:23:04;1.10;;;0.80;;
35324;SDS011;35135;47.510;19.036;2023-06-24T07:25:30;2.03;;;0.98;;
35324;SDS011;35135;47.510;19.036;2023-06-24T07:27:56;2.17;;;0.80;;
35324;SDS011;35135;47.510;19.036;2023-06-24T07:30:21;1.55;;;0.80;;
35324;SDS011;35135;47.510;19.036;2023-06-24T07:32:47;3.45;;;0.90;;
35324;SDS011;35135;47.510;19.036;2023-06-24T07:35:13;2.53;;;1.02;;
35324;SDS011;35135;47.510;19.036;2023-06-24T07:37:40;2.63;;;1.00;;
35324;SDS011;35135;47.510;19.036;2023-06-24T07:40:06;2.95;;;1.02;;
35324;SDS011;35135;47.510;19.036;2023-06-24T07:42:34;7.88;;;1.27;;
35324;SDS011;35135;47.510;19.036;2023-06-24T07:44:59;2.97;;;0.98;;
35324;SDS011;35135;47.510;19.036;2023-06-24T07:47:25;3.25;;;0.88;;
35324;SDS011;35135;47.510;19.036;2023-06-24T07:49:51;4.00;;;1.02;;
35324;SDS011;35135;47.510;19.036;2023-06-24T07:52:17;3.72;;;1.00;;
35324;SDS011;35135;47.510;19.036;2023-06-24T07:54:43;2.03;;;1.10;;
35324;SDS011;35135;47.510;19.036;2023-06-24T07:57:08;5.57;;;1.33;;
35324;SDS011;35135;47.510;19.036;2023-06-24T07:59:34;4.63;;;1.38;;
35324;SDS011;35135;47.510;19.036;2023-06-24T08:02:00;10.23;;;1.50;;
35324;SDS011;35135;47.510;19.036;2023-06-24T08:04:25;5.50;;;1.23;;
35324;SDS011;35135;47.510;19.036;2023-06-24T08:06:51;5.03;;;1.25;;
35324;SDS011;35135;47.510;19.036;2023-06-24T08:09:17;7.03;;;1.38;;
35324;SDS011;35135;47.510;19.036;2023-06-24T08:11:43;4.10;;;1.33;;
35324;SDS011;35135;47.510;19.036;2023-06-24T08:14:09;2.10;;;1.23;;
35324;SDS011;35135;47.510;19.036;2023-06-24T08:16:34;4.15;;;1.35;;
35324;SDS011;35135;47.510;19.036;2023-06-24T08:19:00;4.30;;;0.98;;
35324;SDS011;35135;47.510;19.036;2023-06-24T08:21:26;2.90;;;1.13;;
35324;SDS011;35135;47.510;19.036;2023-06-24T08:23:51;3.30;;;1.00;;
35324;SDS011;35135;47.510;19.036;2023-06-24T08:26:19;2.70;;;1.05;;
35324;SDS011;35135;47.510;19.036;2023-06-24T08:28:46;3.15;;;1.13;;
35324;SDS011;35135;47.510;19.036;2023-06-24T08:31:12;2.53;;;0.75;;
35324;SDS011;35135;47.510;19.036;2023-06-24T08:33:38;1.65;;;1.08;;
35324;SDS011;35135;47.510;19.036;2023-06-24T08:36:04;1.60;;;1.00;;
35324;SDS011;35135;47.510;19.036;2023-06-24T08:38:29;1.92;;;1.00;;
35324;SDS011;35135;47.510;19.036;2023-06-24T08:40:55;4.43;;;1.10;;
35324;SDS011;35135;47.510;19.036;2023-06-24T08:43:21;2.90;;;1.13;;
35324;SDS011;35135;47.510;19.036;2023-06-24T08:45:47;2.17;;;1.20;;
35324;SDS011;35135;47.510;19.036;2023-06-24T08:48:13;2.17;;;1.27;;
35324;SDS011;35135;47.510;19.036;2023-06-24T08:50:46;1.10;;;1.00;;
35324;SDS011;35135;47.510;19.036;2023-06-24T08:53:18;1.90;;;1.02;;
35324;SDS011;35135;47.510;19.036;2023-06-24T08:55:45;1.08;;;0.80;;
35324;SDS011;35135;47.510;19.036;2023-06-24T08:58:12;1.27;;;0.93;;
35324;SDS011;35135;47.510;19.036;2023-06-24T09:00:39;1.20;;;1.10;;
35324;SDS011;35135;47.510;19.036;2023-06-24T09:03:05;1.75;;;1.10;;
35324;SDS011;35135;47.510;19.036;2023-06-24T09:05:30;1.85;;;1.05;;
35324;SDS011;35135;47.510;19.036;2023-06-24T09:07:56;3.92;;;1.10;;
35324;SDS011;35135;47.510;19.036;2023-06-24T09:10:37;2.58;;;1.00;;
35324;SDS011;35135;47.510;19.036;2023-06-24T09:13:03;3.22;;;1.10;;
35324;SDS011;35135;47.510;19.036;2023-06-24T09:15:34;1.85;;;0.80;;
35324;SDS011;35135;47.510;19.036;2023-06-24T09:18:01;1.52;;;1.10;;
35324;SDS011;35135;47.510;19.036;2023-06-24T09:20:29;1.92;;;0.90;;
35324;SDS011;35135;47.510;19.036;2023-06-24T09:23:02;1.58;;;1.17;;
35324;SDS011;35135;47.510;19.036;2023-06-24T09:25:29;3.00;;;1.30;;
35324;SDS011;35135;47.510;19.036;2023-06-24T09:27:58;1.95;;;0.93;;
35324;SDS011;35135;47.510;19.036;2023-06-24T09:30:25;1.15;;;0.90;;
35324;SDS011;35135;47.510;19.036;2023-06-24T09:32:51;1.52;;;0.90;;
35324;SDS011;35135;47.510;19.036;2023-06-24T09:35:19;2.15;;;1.08;;
35324;SDS011;35135;47.510;19.036;2023-06-24T09:37:52;2.88;;;1.50;;
35324;SDS011;35135;47.510;19.036;2023-06-24T09:40:18;1.98;;;1.10;;
35324;SDS011;35135;47.510;19.036;2023-06-24T09:45:29;1.10;;;1.00;;
35324;SDS011;35135;47.510;19.036;2023-06-24T09:47:55;1.95;;;0.90;;
35324;SDS011;35135;47.510;19.036;2023-06-24T09:50:23;2.00;;;1.17;;
35324;SDS011;35135;47.510;19.036;2023-06-24T09:52:49;2.67;;;1.00;;
35324;SDS011;35135;47.510;19.036;2023-06-24T09:55:16;1.75;;;1.00;;
35324;SDS011;35135;47.510;19.036;2023-06-24T09:57:46;2.58;;;1.00;;
35324;SDS011;35135;47.510;19.036;2023-06-24T10:00:16;2.25;;;0.90;;
35324;SDS011;35135;47.510;19.036;2023-06-24T10:02:44;2.17;;;1.10;;
35324;SDS011;35135;47.510;19.036;2023-06-24T10:05:14;1.17;;;1.00;;
35324;SDS011;35135;47.510;19.036;2023-06-24T10:07:40;2.35;;;1.15;;
35324;SDS011;35135;47.510;19.036;2023-06-24T10:10:08;2.65;;;1.35;;
35324;SDS011;35135;47.510;19.036;2023-06-24T10:12:36;2.13;;;1.20;;
35324;SDS011;35135;47.510;19.036;2023-06-24T10:15:02;1.88;;;1.17;;
35324;SDS011;35135;47.510;19.036;2023-06-24T10:17:29;1.83;;;1.35;;
35324;SDS011;35135;47.510;19.036;2023-06-24T10:19:55;1.70;;;1.27;;
35324;SDS011;35135;47.510;19.036;2023-06-24T10:22:24;2.42;;;1.20;;
35324;SDS011;35135;47.510;19.036;2023-06-24T10:24:51;1.33;;;1.20;;
35324;SDS011;35135;47.510;19.036;2023-06-24T10:27:21;1.48;;;1.05;;
35324;SDS011;35135;47.510;19.036;2023-06-24T10:29:51;3.05;;;1.33;;
35324;SDS011;35135;47.510;19.036;2023-06-24T10:32:21;2.08;;;1.08;;
35324;SDS011;35135;47.510;19.036;2023-06-24T10:34:47;1.40;;;1.15;;
35324;SDS011;35135;47.510;19.036;2023-06-24T10:37:23;1.55;;;1.20;;
35324;SDS011;35135;47.510;19.036;2023-06-24T10:45:19;2.38;;;1.20;;
35324;SDS011;35135;47.510;19.036;2023-06-24T10:47:45;1.45;;;1.30;;
35324;SDS011;35135;47.510;19.036;2023-06-24T10:50:18;1.65;;;1.30;;
35324;SDS011;35135;47.510;19.036;2023-06-24T10:52:45;1.63;;;1.42;;
35324;SDS011;35135;47.510;19.036;2023-06-24T10:55:13;2.22;;;1.40;;
35324;SDS011;35135;47.510;19.036;2023-06-24T10:57:41;1.10;;;1.00;;
35324;SDS011;35135;47.510;19.036;2023-06-24T11:00:06;3.42;;;1.33;;
35324;SDS011;35135;47.510;19.036;2023-06-24T11:02:33;2.63;;;1.20;;
35324;SDS011;35135;47.510;19.036;2023-06-24T11:04:59;3.33;;;1.30;;
35324;SDS011;35135;47.510;19.036;2023-06-24T11:07:27;1.27;;;1.00;;
35324;SDS011;35135;47.510;19.036;2023-06-24T11:10:00;1.75;;;1.20;;
35324;SDS011;35135;47.510;19.036;2023-06-24T11:12:36;1.35;;;1.25;;
35324;SDS011;35135;47.510;19.036;2023-06-24T11:15:04;1.50;;;1.20;;
35324;SDS011;35135;47.510;19.036;2023-06-24T11:17:32;4.18;;;1.40;;
35324;SDS011;35135;47.510;19.036;2023-06-24T11:19:58;3.55;;;1.17;;
35324;SDS011;35135;47.510;19.036;2023-06-24T11:22:24;2.17;;;1.30;;
35324;SDS011;35135;47.510;19.036;2023-06-24T11:24:51;1.75;;;1.30;;
35324;SDS011;35135;47.510;19.036;2023-06-24T11:27:27;2.50;;;1.17;;
35324;SDS011;35135;47.510;19.036;2023-06-24T11:29:55;1.60;;;1.30;;
35324;SDS011;35135;47.510;19.036;2023-06-24T11:32:40;1.30;;;1.10;;
35324;SDS011;35135;47.510;19.036;2023-06-24T11:35:08;2.67;;;1.08;;
35324;SDS011;35135;47.510;19.036;2023-06-24T11:37:34;1.92;;;1.40;;
35324;SDS011;35135;47.510;19.036;2023-06-24T11:40:04;1.33;;;1.20;;
35324;SDS011;35135;47.510;19.036;2023-06-24T11:42:31;2.33;;;1.50;;
35324;SDS011;35135;47.510;19.036;2023-06-24T11:45:02;2.00;;;1.30;;
35324;SDS011;35135;47.510;19.036;2023-06-24T11:47:32;3.30;;;1.25;;
35324;SDS011;35135;47.510;19.036;2023-06-24T11:49:59;1.98;;;1.00;;
35324;SDS011;35135;47.510;19.036;2023-06-24T11:57:48;2.15;;;1.13;;
35324;SDS011;35135;47.510;19.036;2023-06-24T12:00:19;1.50;;;1.10;;
35324;SDS011;35135;47.510;19.036;2023-06-24T12:02:48;1.35;;;1.10;;
35324;SDS011;35135;47.510;19.036;2023-06-24T12:05:22;1.38;;;0.95;;
35324;SDS011;35135;47.510;19.036;2023-06-24T12:07:53;3.47;;;1.30;;
35324;SDS011;35135;47.510;19.036;2023-06-24T12:10:21;3.53;;;1.25;;
35324;SDS011;35135;47.510;19.036;2023-06-24T12:12:46;1.50;;;1.40;;
35324;SDS011;35135;47.510;19.036;2023-06-24T12:15:12;1.33;;;1.23;;
35324;SDS011;35135;47.510;19.036;2023-06-24T12:17:38;1.63;;;1.42;;
35324;SDS011;35135;47.510;19.036;2023-06-24T12:20:03;2.55;;;1.25;;
35324;SDS011;35135;47.510;19.036;2023-06-24T12:22:30;1.65;;;1.20;;
35324;SDS011;35135;47.510;19.036;2023-06-24T12:24:55;2.83;;;1.40;;
35324;SDS011;35135;47.510;19.036;2023-06-24T12:27:21;1.85;;;1.27;;
35324;SDS011;35135;47.510;19.036;2023-06-24T12:29:47;3.40;;;1.23;;
35324;SDS011;35135;47.510;19.036;2023-06-24T12:32:12;1.02;;;0.93;;
35324;SDS011;35135;47.510;19.036;2023-06-24T12:34:38;3.38;;;1.60;;
35324;SDS011;35135;47.510;19.036;2023-06-24T12:37:04;2.35;;;1.27;;
35324;SDS011;35135;47.510;19.036;2023-06-24T12:39:29;1.35;;;1.17;;
35324;SDS011;35135;47.510;19.036;2023-06-24T12:41:55;1.38;;;1.27;;
35324;SDS011;35135;47.510;19.036;2023-06-24T12:44:21;1.35;;;1.00;;
35324;SDS011;35135;47.510;19.036;2023-06-24T12:46:46;1.92;;;0.90;;
35324;SDS011;35135;47.510;19.036;2023-06-24T12:49:12;1.52;;;1.08;;
35324;SDS011;35135;47.510;19.036;2023-06-24T12:51:38;1.90;;;1.30;;
35324;SDS011;35135;47.510;19.036;2023-06-24T12:54:04;1.58;;;1.13;;
35324;SDS011;35135;47.510;19.036;2023-06-24T12:56:29;2.38;;;1.10;;
35324;SDS011;35135;47.510;19.036;2023-06-24T12:58:55;2.03;;;1.52;;
35324;SDS011;35135;47.510;19.036;2023-06-24T13:01:20;1.33;;;1.10;;
35324;SDS011;35135;47.510;19.036;2023-06-24T13:03:46;2.20;;;1.10;;
35324;SDS011;35135;47.510;19.036;2023-06-24T13:06:12;1.45;;;1.13;;
35324;SDS011;35135;47.510;19.036;2023-06-24T13:08:39;3.40;;;1.30;;
35324;SDS011;35135;47.510;19.036;2023-06-24T13:11:04;1.40;;;1.30;;
35324;SDS011;35135;47.510;19.036;2023-06-24T13:13:30;2.38;;;1.30;;
35324;SDS011;35135;47.510;19.036;2023-06-24T13:15:56;2.10;;;1.77;;
35324;SDS011;35135;47.510;19.036;2023-06-24T13:18:21;1.48;;;1.08;;
35324;SDS011;35135;47.510;19.036;2023-06-24T13:20:47;1.08;;;0.98;;
35324;SDS011;35135;47.510;19.036;2023-06-24T13:23:13;1.50;;;1.10;;
35324;SDS011;35135;47.510;19.036;2023-06-24T13:25:38;1.70;;;1.60;;
35324;SDS011;35135;47.510;19.036;2023-06-24T13:28:05;1.30;;;1.20;;
35324;SDS011;35135;47.510;19.036;2023-06-24T13:30:31;2.38;;;1.35;;
35324;SDS011;35135;47.510;19.036;2023-06-24T13:32:57;1.42;;;1.25;;
35324;SDS011;35135;47.510;19.036;2023-06-24T13:35:22;1.98;;;1.55;;
35324;SDS011;35135;47.510;19.036;2023-06-24T13:37:48;2.28;;;1.25;;
35324;SDS011;35135;47.510;19.036;2023-06-24T13:40:14;2.25;;;1.30;;
35324;SDS011;35135;47.510;19.036;2023-06-24T13:42:39;3.47;;;1.52;;
35324;SDS011;35135;47.510;19.036;2023-06-24T13:45:05;2.67;;;1.60;;
35324;SDS011;35135;47.510;19.036;2023-06-24T13:47:31;2.55;;;1.38;;
35324;SDS011;35135;47.510;19.036;2023-06-24T13:49:57;2.78;;;1.40;;
35324;SDS011;35135;47.510;19.036;2023-06-24T13:52:24;1.67;;;1.40;;
35324;SDS011;35135;47.510;19.036;2023-06-24T13:54:51;2.15;;;1.60;;
35324;SDS011;35135;47.510;19.036;2023-06-24T13:57:17;1.90;;;1.80;;
35324;SDS011;35135;47.510;19.036;2023-06-24T13:59:43;3.58;;;1.67;;
35324;SDS011;35135;47.510;19.036;2023-06-24T14:02:09;2.20;;;1.77;;
35324;SDS011;35135;47.510;19.036;2023-06-24T14:04:36;1.83;;;1.73;;
35324;SDS011;35135;47.510;19.036;2023-06-24T14:07:02;2.95;;;1.67;;
35324;SDS011;35135;47.510;19.036;2023-06-24T14:09:29;4.03;;;2.10;;
35324;SDS011;35135;47.510;19.036;2023-06-24T14:11:55;2.58;;;1.70;;
35324;SDS011;35135;47.510;19.036;2023-06-24T14:14:21;2.17;;;1.90;;
35324;SDS011;35135;47.510;19.036;2023-06-24T14:16:47;2.30;;;2.03;;
35324;SDS011;35135;47.510;19.036;2023-06-24T14:19:12;2.30;;;2.10;;
35324;SDS011;35135;47.510;19.036;2023-06-24T14:21:38;2.38;;;2.17;;
35324;SDS011;35135;47.510;19.036;2023-06-24T14:24:04;3.25;;;2.10;;
35324;SDS011;35135;47.510;19.036;2023-06-24T14:26:32;2.40;;;2.20;;
35324;SDS011;35135;47.510;19.036;2023-06-24T14:28:58;2.30;;;2.10;;
35324;SDS011;35135;47.510;19.036;2023-06-24T14:31:23;2.50;;;2.30;;
35324;SDS011;35135;47.510;19.036;2023-06-24T14:33:49;2.60;;;2.40;;
35324;SDS011;35135;47.510;19.036;2023-06-24T14:36:15;2.50;;;2.20;;
35324;SDS011;35135;47.510;19.036;2023-06-24T14:38:41;2.25;;;2.05;;
35324;SDS011;35135;47.510;19.036;2023-06-24T14:41:08;2.38;;;2.17;;
35324;SDS011;35135;47.510;19.036;2023-06-24T14:43:33;2.45;;;2.25;;
35324;SDS011;35135;47.510;19.036;2023-06-24T14:45:59;2.55;;;2.20;;
35324;SDS011;35135;47.510;19.036;2023-06-24T14:48:25;2.58;;;2.38;;
35324;SDS011;35135;47.510;19.036;2023-06-24T14:50:51;2.65;;;2.45;;
35324;SDS011;35135;47.510;19.036;2023-06-24T14:53:16;3.13;;;2.28;;
35324;SDS011;35135;47.510;19.036;2023-06-24T14:55:42;2.45;;;2.25;;